Data for 04/13/2008

Time Sea-Level Adjusted Pressure Absolute Pressure Temperature Relative Humidity Dew Point   
(mb) (inHg) (mb) (inHg) (C) (F) (%) (C) (F)
00:05 1026 30.3 855 25.25 4.8 40.7 59 -2.6 27.3
00:10 1026 30.3 855 25.25 5 40.9 58 -2.6 27.2
00:15 1026 30.3 855 25.25 5 41 58 -2.6 27.4
00:20 1026 30.3 855 25.25 4.8 40.6 59 -2.5 27.4
00:25 1026 30.3 855 25.25 4.5 40.1 60 -2.6 27.3
00:30 1026 30.3 855 25.25 4.4 39.8 60 -2.6 27.3
00:35 1026 30.3 855 25.25 4.2 39.6 61 -2.7 27.1
00:40 1026 30.3 855 25.25 4.2 39.5 60 -2.8 27
00:45 1026 30.3 855 25.25 4.2 39.6 60 -2.8 27
00:50 1026 30.3 855 25.25 4.2 39.5 61 -2.7 27.2
00:55 1026 30.3 855 25.25 3.9 39.1 62 -2.6 27.3
01:00 1026 30.3 855 25.25 3.6 38.5 64 -2.7 27.2
01:05 1026 30.3 855 25.25 3.5 38.4 63 -2.7 27.1
01:10 1026 30.3 855 25.25 3.8 38.8 63 -2.7 27.1
01:15 1026 30.3 855 25.25 3.9 39.1 62 -2.7 27.1
01:20 1026 30.3 855 25.25 4 39.1 62 -2.7 27.1
01:25 1026 30.3 855 25.25 4 39.2 61 -2.7 27.1
01:30 1026 30.3 855 25.25 4 39.2 62 -2.7 27.2
01:35 1026 30.3 855 25.25 4.1 39.3 61 -2.7 27.1
01:40 1026 30.3 855 25.25 4.1 39.5 61 -2.7 27.2
01:45 1026 30.3 855 25.25 4 39.2 62 -2.6 27.3
01:50 1026 30.3 855 25.25 3.7 38.7 63 -2.6 27.3
01:55 1026 30.3 855 25.25 3.6 38.5 64 -2.6 27.4
02:00 1026 30.3 855 25.25 3.7 38.6 64 -2.6 27.4
02:05 1026 30.3 855 25.25 4.1 39.4 61 -2.7 27.2
02:10 1026 30.3 855 25.25 4.2 39.5 61 -2.6 27.3
02:15 1026 30.3 855 25.25 4 39.2 62 -2.6 27.2
02:20 1026 30.3 855 25.25 3.9 39 62 -2.6 27.3
02:25 1026 30.3 855 25.25 3.8 38.8 63 -2.6 27.3
02:30 1026 30.3 855 25.25 3.8 38.9 62 -2.7 27.1
02:35 1026 30.3 855 25.25 3.8 38.9 63 -2.7 27.2
02:40 1026 30.3 855 25.25 3.9 38.9 62 -2.7 27.2
02:45 1026 30.3 855 25.25 3.8 38.8 63 -2.7 27.2
02:50 1026 30.3 855 25.25 3.7 38.7 63 -2.6 27.3
02:55 1026 30.3 855 25.25 3.6 38.6 63 -2.7 27.2
03:00 1026 30.3 855 25.25 3.5 38.3 64 -2.7 27.2
03:05 1026 30.3 855 25.25 3.2 37.8 65 -2.6 27.2
03:10 1026 30.3 855 25.25 3 37.3 66 -2.7 27.1
03:15 1025 30.27 855 25.25 3 37.4 66 -2.8 26.9
03:20 1025 30.27 855 25.25 3.5 38.2 64 -2.7 27.2
03:25 1025 30.27 855 25.25 3.8 38.8 63 -2.6 27.3
03:30 1025 30.27 855 25.25 3.8 38.8 63 -2.6 27.3
03:35 1025 30.27 855 25.25 3.6 38.4 64 -2.7 27.2
03:40 1025 30.27 855 25.25 3.4 38.1 64 -2.7 27.2
03:45 1025 30.27 855 25.25 3.2 37.8 65 -2.8 27
03:50 1025 30.27 854 25.22 3.2 37.8 64 -2.9 26.9
03:55 1025 30.27 854 25.22 3.2 37.8 64 -2.8 26.9
04:00 1025 30.27 854 25.22 3.2 37.8 65 -2.8 26.9
04:05 1025 30.27 854 25.22 3.1 37.6 65 -2.8 27
04:10 1025 30.27 854 25.22 2.9 37.2 66 -2.7 27.1
04:15 1025 30.27 854 25.22 2.8 37 67 -2.7 27.1
04:20 1025 30.27 854 25.22 2.8 37.1 67 -2.8 27
04:25 1025 30.27 854 25.22 2.9 37.2 66 -2.8 27
04:30 1025 30.27 854 25.22 3.1 37.5 65 -2.8 27
04:35 1025 30.27 854 25.22 3.2 37.8 65 -2.8 27
04:40 1025 30.27 854 25.22 3.2 37.8 65 -2.8 27
04:45 1025 30.27 854 25.22 3 37.4 66 -2.7 27.2
04:50 1025 30.27 854 25.22 2.7 36.9 67 -2.8 27
04:55 1025 30.27 854 25.22 2.9 37.2 66 -2.9 26.8
05:00 1025 30.27 854 25.22 3.3 37.9 64 -2.8 26.9
05:05 1025 30.27 854 25.22 3.5 38.3 63 -2.8 27
05:10 1025 30.27 854 25.22 3.6 38.5 63 -2.9 26.8
05:15 1025 30.27 854 25.22 3.9 39 61 -2.9 26.8
05:20 1025 30.27 854 25.22 4 39.2 61 -2.8 27
05:25 1025 30.27 854 25.22 3.7 38.7 62 -2.9 26.9
05:30 1025 30.27 854 25.22 3.5 38.3 63 -2.8 27
05:35 1025 30.27 854 25.22 3.3 38 64 -2.9 26.7
05:40 1025 30.27 854 25.22 3.3 37.9 64 -2.8 26.9
05:45 1025 30.27 854 25.22 3.1 37.5 65 -2.9 26.8
05:50 1025 30.27 854 25.22 3.1 37.6 65 -2.8 26.9
05:55 1025 30.27 854 25.22 3.1 37.6 65 -2.9 26.9
06:00 1025 30.27 854 25.22 3.2 37.7 65 -2.8 27
06:05 1025 30.27 854 25.22 3.2 37.8 64 -2.9 26.8
06:10 1025 30.27 854 25.22 3.5 38.3 63 -2.9 26.9
06:15 1025 30.27 854 25.22 3.7 38.6 63 -2.7 27.1
06:20 1025 30.27 854 25.22 3.3 37.9 65 -2.7 27.1
06:25 1025 30.27 855 25.25 2.9 37.3 66 -2.8 26.9
06:30 1025 30.27 855 25.25 3 37.4 66 -2.8 26.9
06:35 1025 30.27 855 25.25 3 37.3 66 -2.8 27
06:40 1025 30.27 855 25.25 3.1 37.6 65 -2.8 27
06:45 1025 30.27 855 25.25 3 37.4 66 -2.8 27
06:50 1025 30.27 855 25.25 2.8 37.1 66 -2.8 26.9
06:55 1025 30.27 855 25.25 2.7 36.9 67 -2.8 27
07:00 1025 30.27 855 25.25 2.5 36.5 68 -2.8 27
07:05 1025 30.27 855 25.25 2.8 37 67 -2.7 27.1
07:10 1025 30.27 855 25.25 2.9 37.3 66 -2.7 27.1
07:15 1025 30.27 855 25.25 2.9 37.3 66 -2.7 27.2
07:20 1025 30.27 855 25.25 2.9 37.2 67 -2.7 27.1
07:25 1025 30.27 855 25.25 2.9 37.2 67 -2.7 27.2
07:30 1025 30.27 855 25.25 2.8 37.1 67 -2.8 27
07:35 1026 30.3 855 25.25 2.8 37.1 67 -2.7 27.2
07:40 1026 30.3 855 25.25 2.9 37.2 67 -2.6 27.2
07:45 1026 30.3 855 25.25 3.1 37.6 66 -2.6 27.3
07:50 1026 30.3 855 25.25 3.2 37.8 66 -2.6 27.4
07:55 1026 30.3 855 25.25 3.5 38.2 65 -2.6 27.4
08:00 1026 30.3 855 25.25 3.7 38.7 64 -2.5 27.5
08:05 1026 30.3 855 25.25 4 39.2 63 -2.3 27.8
08:10 1026 30.3 855 25.25 4.2 39.5 63 -2.3 27.9
08:15 1026 30.3 855 25.25 4.2 39.5 63 -2.1 28.1
08:20 1026 30.3 855 25.25 4.3 39.8 63 -2.1 28.2
08:25 1026 30.3 855 25.25 4.5 40.2 62 -2 28.4
08:30 1026 30.3 855 25.25 5 41.1 60 -2 28.5
08:35 1026 30.3 855 25.25 5.7 42.3 58 -1.9 28.6
08:40 1025 30.27 855 25.25 6 42.8 57 -1.8 28.7
08:45 1025 30.27 855 25.25 6.1 42.9 57 -1.9 28.6
08:50 1026 30.3 855 25.25 6.3 43.3 56 -1.9 28.5
08:55 1026 30.3 855 25.25 6.7 44 55 -1.8 28.8
09:00 1025 30.27 855 25.25 7.2 44.9 52 -1.9 28.6
09:05 1025 30.27 855 25.25 7.4 45.3 53 -1.5 29.2
09:10 1025 30.27 855 25.25 7.8 46 51 -1.6 29.1
09:15 1025 30.27 855 25.25 8.6 47.4 48 -1.7 28.9
09:20 1025 30.27 855 25.25 9 48.1 46 -2 28.5
09:25 1025 30.27 855 25.25 8.9 48.1 46 -1.9 28.6
09:30 1025 30.27 855 25.25 9.2 48.5 45 -2 28.3
09:35 1025 30.27 855 25.25 9.7 49.5 44 -1.8 28.7
09:40 1025 30.27 855 25.25 9.9 49.7 44 -1.7 28.9
09:45 1025 30.27 855 25.25 9.5 49.1 45 -1.8 28.8
09:50 1025 30.27 855 25.25 9.6 49.3 44 -2.1 28.2
09:55 1025 30.27 854 25.22 10.3 50.5 43 -1.8 28.7
10:00 1025 30.27 854 25.22 11.3 52.3 39 -2.1 28.3
10:05 1025 30.27 854 25.22 11.4 52.6 39 -1.9 28.5
10:10 1025 30.27 854 25.22 10.9 51.5 41 -1.8 28.7
10:15 1025 30.27 854 25.22 10.2 50.4 42 -2.1 28.3
10:20 1025 30.27 854 25.22 10.7 51.3 41 -1.9 28.6
10:25 1025 30.27 854 25.22 11.8 53.2 38 -1.9 28.6
10:30 1025 30.27 854 25.22 12 53.7 38 -1.7 28.9
10:35 1025 30.27 854 25.22 12.2 53.9 38 -1.8 28.8
10:40 1025 30.27 854 25.22 12.2 54 38 -1.7 29
10:45 1025 30.27 854 25.22 12.1 53.7 38 -1.9 28.6
10:50 1025 30.27 854 25.22 12.4 54.4 37 -1.8 28.8
10:55 1025 30.27 854 25.22 12.1 53.7 38 -1.9 28.6
11:00 1025 30.27 854 25.22 12 53.7 37 -2 28.3
11:05 1025 30.27 854 25.22 13.1 55.6 35 -2 28.4
11:10 1025 30.27 854 25.22 13.5 56.3 35 -1.6 29.1
11:15 1025 30.27 854 25.22 14.3 57.8 33 -1.5 29.3
11:20 1025 30.27 854 25.22 14.1 57.3 35 -0.9 30.3
11:25 1025 30.27 854 25.22 14.4 58 34 -1 30.2
11:30 1024 30.24 854 25.22 15.1 59.2 33 -1 30.3
11:35 1024 30.24 854 25.22 15.5 59.8 32 -1 30.2
11:40 1024 30.24 854 25.22 15.3 59.5 33 -0.8 30.5
11:45 1024 30.24 854 25.22 14.3 57.8 33 -1.5 29.3
11:50 1024 30.24 853 25.19 14.8 58.7 33 -1.3 29.7
11:55 1024 30.24 853 25.19 15.4 59.6 30 -1.8 28.7
12:00 1024 30.24 853 25.19 16.3 61.4 30 -1.3 29.6
12:05 1024 30.24 853 25.19 16.6 61.9 30 -1.2 29.9
12:10 1024 30.24 853 25.19 16.4 61.4 29 -1.6 29.1
12:15 1024 30.24 853 25.19 16.3 61.4 30 -1.2 29.8
12:20 1024 30.24 853 25.19 16.7 62.1 30 -0.7 30.8
12:25 1024 30.24 853 25.19 17 62.5 29 -1.3 29.7
12:30 1024 30.24 853 25.19 16.5 61.8 30 -0.8 30.5
12:35 1024 30.24 853 25.19 16.9 62.4 29 -0.9 30.3
12:40 1023 30.21 853 25.19 17.1 62.7 29 -1 30.2
12:45 1023 30.21 853 25.19 16.7 62 28 -1.9 28.6
12:50 1023 30.21 853 25.19 16.7 62.1 29 -1.3 29.6
12:55 1023 30.21 852 25.16 17.3 63.2 25 -2.7 27.2
13:00 1023 30.21 852 25.16 16.6 61.9 26 -2.7 27.2
13:05 1023 30.21 852 25.16 17.2 62.9 24 -3.3 26.1
13:10 1023 30.21 852 25.16 17.6 63.7 23 -3.7 25.4
13:15 1023 30.21 852 25.16 16.8 62.2 23 -4.3 24.2
13:20 1023 30.21 852 25.16 17.5 63.4 22 -4.3 24.3
13:25 1023 30.21 852 25.16 17.8 64.1 23 -3.6 25.5
13:30 1023 30.21 852 25.16 18.3 64.9 21 -4.3 24.2
13:35 1023 30.21 852 25.16 19.6 67.3 19 -4.2 24.4
13:40 1023 30.21 852 25.16 19 66.2 21 -3.8 25.1
13:45 1023 30.21 852 25.16 19.6 67.2 19 -4.4 24.1
13:50 1023 30.21 852 25.16 19.8 67.6 20 -3.8 25.2
13:55 1022 30.18 852 25.16 20.4 68.7 19 -3.8 25.1
14:00 1022 30.18 852 25.16 19.6 67.4 20 -4 24.9
14:05 1022 30.18 852 25.16 18.4 65 21 -4.1 24.5
14:10 1022 30.18 852 25.16 19.3 66.7 20 -4.2 24.5
14:15 1022 30.18 851 25.13 19.7 67.5 19 -4.2 24.5
14:20 1022 30.18 851 25.13 19 66.2 20 -4.4 24
14:25 1022 30.18 851 25.13 19.3 66.8 19 -4.8 23.4
14:30 1022 30.18 851 25.13 19.6 67.3 20 -3.8 25.2
14:35 1022 30.18 851 25.13 19.6 67.2 19 -4.6 23.8
14:40 1022 30.18 851 25.13 19.3 66.7 19 -4.4 24
14:45 1022 30.18 851 25.13 18.8 65.8 20 -4.5 23.9
14:50 1022 30.18 851 25.13 19.1 66.3 20 -4.5 23.8
14:55 1022 30.18 851 25.13 19.1 66.5 20 -4.5 23.9
15:00 1022 30.18 851 25.13 19.3 66.7 20 -3.9 25
15:05 1022 30.18 851 25.13 19.8 67.6 20 -3.6 25.6
15:10 1022 30.18 851 25.13 20.6 69 19 -3.6 25.4
15:15 1022 30.18 851 25.13 20.6 69.1 19 -3.5 25.7
15:20 1022 30.18 851 25.13 21.2 70.2 19 -3.4 25.8
15:25 1022 30.18 851 25.13 21.1 70 19 -3 26.5
15:30 1022 30.18 851 25.13 21.3 70.4 19 -3 26.6
15:35 1022 30.18 851 25.13 21.1 70 19 -3 26.7
15:40 1021 30.15 851 25.13 20.9 69.6 19 -3.1 26.4
15:45 1021 30.15 851 25.13 20.1 68.2 21 -2.6 27.3
15:50 1021 30.15 851 25.13 20.2 68.4 21 -2.9 26.8
15:55 1021 30.15 850 25.1 21.1 69.9 20 -2.8 26.9
16:00 1021 30.15 850 25.1 20.8 69.4 20 -2.9 26.9
16:05 1021 30.15 850 25.1 20.7 69.2 20 -3.1 26.4
16:10 1021 30.15 850 25.1 21.3 70.4 19 -2.9 26.7
16:15 1021 30.15 850 25.1 21.6 70.9 19 -2.9 26.8
16:20 1021 30.15 850 25.1 21.9 71.5 19 -2.4 27.6
16:25 1021 30.15 850 25.1 21.8 71.2 19 -2.8 26.9
16:30 1021 30.15 850 25.1 21.4 70.5 20 -2.3 27.9
16:35 1021 30.15 850 25.1 21.3 70.4 19 -2.8 27
16:40 1021 30.15 850 25.1 21.3 70.4 20 -2.6 27.4
16:45 1021 30.15 850 25.1 20.6 69 21 -2.5 27.5
16:50 1020 30.12 850 25.1 21 69.7 21 -2 28.4
16:55 1020 30.12 850 25.1 21.7 71.1 20 -2.2 28
17:00 1020 30.12 850 25.1 22.1 71.7 19 -2.1 28.2
17:05 1020 30.12 850 25.1 22 71.7 20 -1.7 29
17:10 1020 30.12 849 25.07 22.5 72.5 20 -1.6 29.1
17:15 1020 30.12 849 25.07 21.6 70.8 21 -1.4 29.4
17:20 1020 30.12 849 25.07 21.4 70.5 21 -2 28.5
17:25 1020 30.12 849 25.07 22.2 71.9 20 -1.5 29.2
17:30 1020 30.12 849 25.07 21.2 70.2 22 -1.1 30.1
17:35 1020 30.12 849 25.07 20.3 68.5 22 -1.7 28.9
17:40 1020 30.12 849 25.07 21 69.8 18 -4.2 24.5
17:45 1020 30.12 849 25.07 21.4 70.6 16 -5.4 22.3
17:50 1020 30.12 849 25.07 21.8 71.2 16 -5.1 22.8
17:55 1020 30.12 849 25.07 21.9 71.3 16 -5.1 22.8
18:00 1020 30.12 849 25.07 21.5 70.7 17 -4.6 23.7
18:05 1020 30.12 849 25.07 21.4 70.6 16 -5 23
18:10 1020 30.12 849 25.07 21 69.9 17 -5.1 22.8
18:15 1020 30.12 849 25.07 20.7 69.2 17 -5.4 22.2
18:20 1020 30.12 849 25.07 20.7 69.3 17 -5.3 22.5
18:25 1019 30.09 849 25.07 20.6 69.1 17 -4.8 23.3
18:30 1019 30.09 849 25.07 20.3 68.5 17 -5.1 22.9
18:35 1019 30.09 848 25.04 19.9 67.9 18 -4.9 23.2
18:40 1019 30.09 848 25.04 19.8 67.6 19 -4.2 24.5
18:45 1019 30.09 848 25.04 19.9 67.7 20 -3.9 25
18:50 1019 30.09 848 25.04 19.7 67.5 19 -4.4 24.1
18:55 1019 30.09 848 25.04 19.4 66.9 19 -4.4 24.1
19:00 1019 30.09 848 25.04 19.3 66.7 20 -4.2 24.5
19:05 1019 30.09 848 25.04 19.2 66.6 20 -4 24.8
19:10 1019 30.09 848 25.04 19 66.3 20 -4.6 23.7
19:15 1019 30.09 848 25.04 19 66.1 20 -4.1 24.6
19:20 1019 30.09 848 25.04 18.7 65.7 22 -3.5 25.8
19:25 1019 30.09 848 25.04 18.4 65.2 21 -3.9 25
19:30 1019 30.09 848 25.04 18.3 65 22 -3.7 25.4
19:35 1019 30.09 848 25.04 18.2 64.7 23 -3.2 26.3
19:40 1019 30.09 848 25.04 17.8 64 27 -1.4 29.5
19:45 1019 30.09 848 25.04 17.2 62.9 28 -1.2 29.8
19:50 1019 30.09 848 25.04 16.4 61.5 31 -0.8 30.6
19:55 1018 30.06 848 25.04 15.5 59.9 31 -1.3 29.7
20:00 1019 30.09 848 25.04 15 59 31 -1.7 28.9
20:05 1018 30.06 848 25.04 14.7 58.5 32 -1.8 28.7
20:10 1018 30.06 848 25.04 14.5 58.1 32 -2.1 28.3
20:15 1018 30.06 848 25.04 14.4 57.8 30 -2.8 26.9
20:20 1018 30.06 848 25.04 14.3 57.7 30 -2.9 26.9
20:25 1018 30.06 848 25.04 13.7 56.7 31 -3.1 26.4
20:30 1018 30.06 848 25.04 13.4 56.2 31 -3.4 25.9
20:35 1018 30.06 848 25.04 13.4 56 31 -3.6 25.6
20:40 1018 30.06 848 25.04 13.6 56.5 30 -3.5 25.7
20:45 1018 30.06 848 25.04 13.3 55.9 30 -3.8 25.2
20:50 1018 30.06 848 25.04 13.3 55.9 30 -3.7 25.4
20:55 1018 30.06 848 25.04 13.3 55.9 29 -4.3 24.3
21:00 1018 30.06 848 25.04 13.4 56.1 29 -4 24.8
21:05 1019 30.09 848 25.04 13.2 55.8 30 -3.7 25.3
21:10 1019 30.09 848 25.04 12.6 54.7 32 -3.5 25.7
21:15 1019 30.09 848 25.04 12.1 53.7 33 -3.5 25.6
21:20 1019 30.09 848 25.04 11.6 52.9 34 -3.6 25.6
21:25 1019 30.09 848 25.04 11.2 52.2 35 -3.7 25.4
21:30 1019 30.09 848 25.04 10.9 51.6 36 -3.4 25.9
21:35 1019 30.09 848 25.04 10.6 51 37 -3.3 26
21:40 1019 30.09 848 25.04 10.5 50.8 37 -3.4 25.9
21:45 1019 30.09 848 25.04 10.3 50.6 39 -3.1 26.3
21:50 1019 30.09 848 25.04 10 50 40 -3 26.6
21:55 1019 30.09 848 25.04 9.6 49.3 40 -3.3 26.1
22:00 1019 30.09 848 25.04 9.8 49.7 37 -4.2 24.5
22:05 1019 30.09 848 25.04 10.5 50.8 35 -4.3 24.2
22:10 1019 30.09 848 25.04 10.8 51.5 34 -4.5 23.8
22:15 1019 30.09 848 25.04 10.9 51.7 34 -4.4 24
22:20 1019 30.09 848 25.04 10.7 51.2 35 -4.2 24.4
22:25 1019 30.09 848 25.04 10.3 50.5 35 -4.3 24.2
22:30 1019 30.09 848 25.04 10.2 50.4 35 -4.5 23.9
22:35 1019 30.09 848 25.04 10.2 50.3 35 -4.5 23.9
22:40 1019 30.09 848 25.04 10 49.9 35 -4.6 23.6
22:45 1019 30.09 848 25.04 10 50 37 -4.1 24.6
22:50 1019 30.09 848 25.04 10.1 50.2 36 -4.1 24.6
22:55 1019 30.09 848 25.04 10.2 50.4 34 -4.9 23.2
23:00 1019 30.09 848 25.04 10.4 50.8 34 -4.7 23.5
23:05 1019 30.09 848 25.04 10.4 50.7 33 -5.1 22.8
23:10 1019 30.09 848 25.04 10.5 50.8 33 -5.2 22.7
23:15 1019 30.09 848 25.04 10.3 50.5 33 -5.2 22.6
23:20 1019 30.09 848 25.04 10.2 50.3 34 -5 23
23:25 1019 30.09 848 25.04 9.8 49.6 35 -4.8 23.3
23:30 1019 30.09 848 25.04 9.4 49 35 -5.1 22.9
23:35 1019 30.09 848 25.04 9.5 49 36 -4.9 23.1
23:40 1019 30.09 848 25.04 9.3 48.7 37 -4.5 23.9
23:45 1019 30.09 848 25.04 9 48.2 38 -4.5 23.9
23:50 1019 30.09 848 25.04 8.9 48.1 38 -4.5 23.9
23:55 1019 30.09 848 25.04 8.8 47.9 39 -4.2 24.4
24:00 1019 30.09 848 25.04 8.6 47.6 41 -4 24.8